createdAt,value
2017-12-01T05:00:51.978Z,0
2017-12-01T05:01:17.437Z,0
2017-12-01T05:01:42.927Z,0
2017-12-01T05:02:08.400Z,0
2017-12-01T05:03:22.200Z,0
2017-12-01T05:03:47.683Z,0
2017-12-01T05:04:13.209Z,0
2017-12-01T05:04:38.697Z,0
2017-12-01T05:05:04.253Z,0
2017-12-01T05:05:29.738Z,0
2017-12-01T05:05:55.180Z,0
2017-12-01T05:07:14.119Z,0
2017-12-01T05:07:39.573Z,0
2017-12-01T05:08:04.994Z,0
2017-12-01T05:08:30.448Z,0
2017-12-01T05:08:55.922Z,0
2017-12-01T05:09:21.451Z,0
2017-12-01T05:09:46.886Z,0
2017-12-01T05:10:12.410Z,0
2017-12-01T05:10:37.863Z,0
2017-12-01T05:11:03.329Z,0
2017-12-01T05:12:17.081Z,0
2017-12-01T05:12:42.588Z,0
2017-12-01T05:14:01.485Z,0
2017-12-01T05:14:26.966Z,0
2017-12-01T05:14:52.453Z,0
2017-12-01T05:15:17.943Z,0
2017-12-01T05:15:43.401Z,0
2017-12-01T05:16:57.239Z,0
2017-12-01T05:17:22.742Z,0
2017-12-01T05:17:48.250Z,0
2017-12-01T05:18:13.708Z,0
2017-12-01T05:18:39.180Z,0
2017-12-01T05:19:04.721Z,0
2017-12-01T05:19:30.150Z,0
2017-12-01T05:19:55.678Z,0
2017-12-01T05:20:21.103Z,0
2017-12-01T05:20:46.564Z,0
2017-12-01T05:21:12.082Z,0
2017-12-01T05:21:37.565Z,0
2017-12-01T05:22:03.056Z,0
2017-12-01T05:22:28.508Z,0
2017-12-01T05:22:54.040Z,0
2017-12-01T05:23:19.477Z,0
2017-12-01T05:23:44.923Z,0
2017-12-01T05:24:10.372Z,0
2017-12-01T05:24:35.851Z,0
2017-12-01T05:25:01.338Z,0
2017-12-01T05:25:26.830Z,0
2017-12-01T05:25:52.309Z,0
2017-12-01T05:26:17.778Z,0
2017-12-01T05:26:43.262Z,0
2017-12-01T05:27:08.702Z,0
2017-12-01T05:27:34.171Z,0
2017-12-01T05:27:59.632Z,0
2017-12-01T05:28:25.118Z,0
2017-12-01T05:28:50.611Z,0
2017-12-01T05:29:16.097Z,0
2017-12-01T05:29:41.584Z,0
2017-12-01T05:30:07.108Z,0
2017-12-01T05:30:32.569Z,0
2017-12-01T05:30:58.051Z,0
2017-12-01T05:31:23.520Z,0
2017-12-01T05:31:49.017Z,0
2017-12-01T05:32:57.721Z,0
2017-12-01T05:33:23.180Z,0
2017-12-01T05:33:48.688Z,0
2017-12-01T05:35:02.474Z,0
2017-12-01T05:35:27.926Z,0
2017-12-01T05:35:53.420Z,0
2017-12-01T05:36:18.930Z,0
2017-12-01T05:36:44.380Z,0
2017-12-01T05:37:09.866Z,0
2017-12-01T05:37:35.369Z,0
2017-12-01T05:38:00.813Z,0
2017-12-01T05:39:24.829Z,0
2017-12-01T05:39:50.321Z,0
2017-12-01T05:40:15.830Z,0
2017-12-01T05:40:41.291Z,0
2017-12-01T05:41:06.789Z,0
2017-12-01T05:41:32.254Z,0
2017-12-01T05:41:57.764Z,0
2017-12-01T05:42:23.241Z,0
2017-12-01T05:42:48.700Z,0
2017-12-01T05:43:14.230Z,0
2017-12-01T05:43:39.719Z,0
2017-12-01T05:44:05.206Z,0
2017-12-01T05:44:30.664Z,0
2017-12-01T05:44:56.146Z,0
2017-12-01T05:45:21.617Z,0
2017-12-01T05:45:47.135Z,0
2017-12-01T05:46:12.663Z,0
2017-12-01T05:47:26.429Z,0
2017-12-01T05:47:51.919Z,0
2017-12-01T05:48:17.424Z,0
2017-12-01T05:48:42.898Z,0
2017-12-01T05:49:08.385Z,0
2017-12-01T05:49:33.893Z,0
2017-12-01T05:49:59.347Z,0
2017-12-01T05:50:24.823Z,0
2017-12-01T05:50:50.340Z,0
2017-12-01T05:51:15.848Z,0
2017-12-01T05:51:41.316Z,0
2017-12-01T05:52:06.806Z,0
2017-12-01T05:52:32.293Z,0
2017-12-01T05:52:57.771Z,0
2017-12-01T05:53:23.276Z,0
2017-12-01T05:53:48.745Z,0
2017-12-01T05:54:14.200Z,0
2017-12-01T05:54:39.707Z,0
2017-12-01T05:55:05.179Z,0
2017-12-01T05:56:13.929Z,0
2017-12-01T05:56:39.415Z,0
2017-12-01T05:57:04.901Z,0
2017-12-01T05:57:30.418Z,0
2017-12-01T05:57:55.915Z,0
2017-12-01T05:58:21.373Z,0
2017-12-01T05:58:46.864Z,0
2017-12-01T05:59:12.362Z,0
2017-12-01T05:59:37.873Z,0
2017-12-01T06:00:03.426Z,0
2017-12-01T06:00:28.888Z,0
2017-12-01T06:00:54.349Z,0
2017-12-01T06:01:19.812Z,0
2017-12-01T06:01:45.276Z,0
2017-12-01T06:02:10.785Z,0
2017-12-01T06:02:36.268Z,0
2017-12-01T06:03:01.711Z,0
2017-12-01T06:03:27.212Z,0
2017-12-01T06:03:52.699Z,0
2017-12-01T06:04:18.206Z,0
2017-12-01T06:04:43.685Z,0
2017-12-01T06:05:09.174Z,0
2017-12-01T06:05:34.640Z,0
2017-12-01T06:06:00.098Z,0
2017-12-01T06:06:25.567Z,0
2017-12-01T06:06:51.030Z,0
2017-12-01T06:07:16.568Z,0
2017-12-01T06:07:42.036Z,0
2017-12-01T06:08:07.530Z,0
2017-12-01T06:08:33.002Z,0
2017-12-01T06:08:58.497Z,0
2017-12-01T06:09:23.977Z,0
2017-12-01T06:09:49.489Z,0
2017-12-01T06:10:58.198Z,0
2017-12-01T06:11:23.682Z,0
2017-12-01T06:11:49.141Z,0
2017-12-01T06:12:14.620Z,0
2017-12-01T06:12:40.089Z,0
2017-12-01T06:13:05.565Z,0
2017-12-01T06:13:31.069Z,0
2017-12-01T06:13:56.584Z,0
2017-12-01T06:14:22.053Z,0
2017-12-01T06:14:47.586Z,0
2017-12-01T06:15:13.079Z,0
2017-12-01T06:15:38.559Z,0
2017-12-01T06:16:04.046Z,0
2017-12-01T06:16:29.535Z,0
2017-12-01T06:16:55.010Z,0
2017-12-01T06:17:20.514Z,0
2017-12-01T06:17:46.012Z,0
2017-12-01T06:18:11.541Z,0
2017-12-01T06:18:37.048Z,0
2017-12-01T06:19:02.530Z,0
2017-12-01T06:19:28.021Z,0
2017-12-01T06:20:31.629Z,0
2017-12-01T06:20:57.127Z,0
2017-12-01T06:21:22.610Z,0
2017-12-01T06:21:48.095Z,0
2017-12-01T06:22:13.579Z,0
2017-12-01T06:22:39.042Z,0
2017-12-01T06:24:03.614Z,0
2017-12-01T06:24:29.101Z,0
2017-12-01T06:24:54.550Z,0
2017-12-01T06:25:20.041Z,0
2017-12-01T06:26:28.691Z,0
2017-12-01T06:26:54.187Z,0
2017-12-01T06:27:19.699Z,0
2017-12-01T06:27:45.221Z,0
2017-12-01T06:28:10.700Z,0
2017-12-01T06:28:36.186Z,0
2017-12-01T06:29:01.663Z,0
2017-12-01T06:29:27.114Z,0
2017-12-01T06:29:52.589Z,0
2017-12-01T06:30:18.070Z,0
2017-12-01T06:30:43.560Z,0
2017-12-01T06:31:09.070Z,0
2017-12-01T06:31:34.574Z,0
2017-12-01T06:32:00.064Z,0
2017-12-01T06:33:13.849Z,0
2017-12-01T06:33:39.316Z,0
2017-12-01T06:34:04.806Z,0
2017-12-01T06:34:30.280Z,0
2017-12-01T06:34:55.773Z,0
2017-12-01T06:35:21.272Z,0
2017-12-01T06:35:46.752Z,0
2017-12-01T06:36:12.230Z,0
2017-12-01T06:36:37.685Z,0
2017-12-01T06:37:03.170Z,0
2017-12-01T06:37:28.668Z,0
2017-12-01T06:37:54.167Z,0
2017-12-01T06:38:19.633Z,0
2017-12-01T06:38:45.134Z,0
2017-12-01T06:39:10.615Z,0
2017-12-01T06:39:36.123Z,0
2017-12-01T06:40:01.653Z,0
2017-12-01T06:40:27.148Z,0
2017-12-01T06:40:52.620Z,4
2017-12-01T06:41:18.149Z,4
2017-12-01T06:41:43.649Z,4
2017-12-01T06:42:09.129Z,4
2017-12-01T06:42:34.632Z,4
2017-12-01T06:43:00.143Z,4
2017-12-01T06:43:25.644Z,4
2017-12-01T06:43:51.115Z,0
2017-12-01T06:44:16.623Z,0
2017-12-01T06:44:42.143Z,0
2017-12-01T06:45:07.604Z,4
2017-12-01T06:45:33.095Z,4
2017-12-01T06:45:58.616Z,4
2017-12-01T06:46:24.076Z,4
2017-12-01T06:46:49.588Z,4
2017-12-01T06:47:15.118Z,4
2017-12-01T06:47:40.547Z,4
2017-12-01T06:48:06.054Z,4
2017-12-01T06:48:31.547Z,4
2017-12-01T06:48:57.080Z,4
2017-12-01T06:49:22.558Z,4
2017-12-01T06:49:48.051Z,4
2017-12-01T06:50:13.594Z,8
2017-12-01T06:50:39.066Z,4
2017-12-01T06:51:04.540Z,4
2017-12-01T06:51:30.045Z,8
2017-12-01T06:51:55.554Z,8
2017-12-01T06:52:21.035Z,8
2017-12-01T06:52:46.539Z,8
2017-12-01T06:53:12.037Z,8
2017-12-01T06:53:37.503Z,12
2017-12-01T06:54:03.046Z,8
2017-12-01T06:54:28.519Z,8
2017-12-01T06:54:53.978Z,12
2017-12-01T06:55:19.458Z,8
2017-12-01T06:55:44.971Z,12
2017-12-01T06:56:10.509Z,16
2017-12-01T06:56:35.957Z,12
2017-12-01T06:57:01.439Z,16
2017-12-01T06:57:26.985Z,12
2017-12-01T06:57:52.427Z,16
2017-12-01T06:58:17.941Z,16
2017-12-01T06:58:43.503Z,20
2017-12-01T06:59:09.002Z,16
2017-12-01T06:59:34.529Z,20
2017-12-01T07:00:00.022Z,20
2017-12-01T07:00:25.537Z,20
2017-12-01T07:00:51.012Z,24
2017-12-01T07:01:54.628Z,28
2017-12-01T07:02:20.117Z,28
2017-12-01T07:02:45.604Z,32
2017-12-01T07:03:11.130Z,32
2017-12-01T07:03:36.646Z,36
2017-12-01T07:04:02.154Z,36
2017-12-01T07:04:27.635Z,40
2017-12-01T07:05:51.628Z,48
2017-12-01T07:06:17.127Z,48
2017-12-01T07:06:42.638Z,52
2017-12-01T07:07:08.115Z,52
2017-12-01T07:07:33.628Z,52
2017-12-01T07:07:59.086Z,60
2017-12-01T07:08:24.569Z,60
2017-12-01T07:09:38.404Z,64
2017-12-01T07:10:03.858Z,68
2017-12-01T07:10:29.345Z,72
2017-12-01T07:10:54.847Z,76
2017-12-01T07:11:20.401Z,76
2017-12-01T07:11:45.922Z,80
2017-12-01T07:12:11.432Z,88
2017-12-01T07:12:36.937Z,92
2017-12-01T07:13:02.396Z,96
2017-12-01T07:13:27.880Z,100
2017-12-01T07:13:53.365Z,100
2017-12-01T07:14:18.870Z,108
2017-12-01T07:14:44.383Z,112
2017-12-01T07:15:09.899Z,116
2017-12-01T07:15:35.355Z,120
2017-12-01T07:16:44.075Z,132
2017-12-01T07:17:09.564Z,136
2017-12-01T07:17:35.039Z,136
2017-12-01T07:18:00.571Z,144
2017-12-01T07:18:26.024Z,148
2017-12-01T07:18:51.505Z,148
2017-12-01T07:20:05.334Z,164
2017-12-01T07:20:30.818Z,168
2017-12-01T07:20:56.275Z,172
2017-12-01T07:21:21.745Z,184
2017-12-01T07:21:47.194Z,188
2017-12-01T07:22:12.715Z,192
2017-12-01T07:22:38.204Z,196
2017-12-01T07:24:02.381Z,212
2017-12-01T07:24:27.872Z,212
2017-12-01T07:24:53.372Z,212
2017-12-01T07:25:18.820Z,220
2017-12-01T07:25:44.367Z,220
2017-12-01T07:26:09.877Z,232
2017-12-01T07:26:35.351Z,236
2017-12-01T07:27:00.839Z,236
2017-12-01T07:27:26.328Z,244
2017-12-01T07:27:51.816Z,252
2017-12-01T07:28:17.319Z,252
2017-12-01T07:28:42.865Z,256
2017-12-01T07:29:08.369Z,260
2017-12-01T07:29:33.872Z,268
2017-12-01T07:29:59.384Z,272
2017-12-01T07:30:24.840Z,280
2017-12-01T07:30:50.359Z,284
2017-12-01T07:31:15.820Z,296
2017-12-01T07:31:41.286Z,304
2017-12-01T07:32:06.765Z,312
2017-12-01T07:32:32.233Z,320
2017-12-01T07:32:57.724Z,336
2017-12-01T07:33:23.234Z,352
2017-12-01T07:33:48.739Z,368
2017-12-01T07:34:14.178Z,384
2017-12-01T07:34:39.652Z,396
2017-12-01T07:35:05.157Z,412
2017-12-01T07:35:30.669Z,424
2017-12-01T07:35:56.169Z,432
2017-12-01T07:36:21.654Z,436
2017-12-01T07:36:47.137Z,440
2017-12-01T07:37:12.622Z,452
2017-12-01T07:37:38.119Z,452
2017-12-01T07:38:03.603Z,464
2017-12-01T07:38:29.100Z,476
2017-12-01T07:38:54.632Z,496
2017-12-01T07:39:20.183Z,516
2017-12-01T07:39:45.679Z,532
2017-12-01T07:40:11.142Z,544
2017-12-01T07:40:36.657Z,564
2017-12-01T07:41:02.136Z,584
2017-12-01T07:41:27.624Z,600
2017-12-01T07:41:53.177Z,612
2017-12-01T07:42:18.664Z,624
2017-12-01T07:42:44.120Z,632
2017-12-01T07:43:09.615Z,636
2017-12-01T07:43:35.103Z,644
2017-12-01T07:44:00.621Z,652
2017-12-01T07:44:26.172Z,668
2017-12-01T07:45:34.852Z,684
2017-12-01T07:46:00.333Z,692
2017-12-01T07:47:14.124Z,700
2017-12-01T07:47:39.585Z,700
2017-12-01T07:48:05.088Z,696
2017-12-01T07:48:30.610Z,696
2017-12-01T07:48:56.087Z,696
2017-12-01T07:49:21.622Z,696
2017-12-01T07:49:47.129Z,708
2017-12-01T07:50:12.614Z,704
2017-12-01T07:50:38.149Z,704
2017-12-01T07:51:03.687Z,720
2017-12-01T07:51:29.220Z,740
2017-12-01T07:51:54.727Z,764
2017-12-01T07:52:20.214Z,796
2017-12-01T07:52:45.680Z,828
2017-12-01T07:53:11.163Z,852
2017-12-01T07:53:36.621Z,876
2017-12-01T07:54:02.117Z,888
2017-12-01T07:54:27.579Z,908
2017-12-01T07:54:53.072Z,916
2017-12-01T07:55:18.593Z,916
2017-12-01T07:56:27.318Z,932
2017-12-01T07:56:52.830Z,924
2017-12-01T07:57:18.300Z,900
2017-12-01T07:58:21.896Z,880
2017-12-01T07:58:47.387Z,892
2017-12-01T07:59:12.902Z,920
2017-12-01T07:59:38.377Z,932
2017-12-01T08:00:03.886Z,916
2017-12-01T08:00:29.382Z,892
2017-12-01T08:00:54.878Z,860
2017-12-01T08:01:20.394Z,828
2017-12-01T08:01:45.820Z,828
2017-12-01T08:02:11.322Z,844
2017-12-01T08:02:36.786Z,884
2017-12-01T08:03:02.283Z,892
2017-12-01T08:03:27.852Z,904
2017-12-01T08:03:53.386Z,944
2017-12-01T08:04:18.896Z,952
2017-12-01T08:04:44.402Z,884
2017-12-01T08:05:09.910Z,868
2017-12-01T08:05:35.439Z,892
2017-12-01T08:06:00.925Z,912
2017-12-01T08:06:26.383Z,912
2017-12-01T08:06:51.890Z,916
2017-12-01T08:07:17.453Z,916
2017-12-01T08:07:42.920Z,928
2017-12-01T08:08:08.422Z,952
2017-12-01T08:08:33.970Z,996
2017-12-01T08:08:59.441Z,976
2017-12-01T08:09:24.951Z,900
2017-12-01T08:10:43.883Z,800
2017-12-01T08:11:09.314Z,804
2017-12-01T08:11:34.820Z,792
2017-12-01T08:12:00.320Z,744
2017-12-01T08:12:25.787Z,708
2017-12-01T08:12:51.288Z,728
2017-12-01T08:13:16.790Z,740
2017-12-01T08:13:42.274Z,764
2017-12-01T08:14:07.777Z,788
2017-12-01T08:14:33.250Z,800
2017-12-01T08:14:58.751Z,812
2017-12-01T08:16:12.612Z,968
2017-12-01T08:16:38.023Z,984
2017-12-01T08:17:03.524Z,952
2017-12-01T08:17:28.997Z,1000
2017-12-01T08:17:54.498Z,1052
2017-12-01T08:18:20.019Z,1072
2017-12-01T08:18:45.540Z,1032
2017-12-01T08:19:10.990Z,1016
2017-12-01T08:19:36.471Z,972
2017-12-01T08:20:01.969Z,940
2017-12-01T08:20:27.428Z,968
2017-12-01T08:20:52.897Z,984
2017-12-01T08:21:18.410Z,980
2017-12-01T08:21:43.877Z,976
2017-12-01T08:22:09.381Z,908
2017-12-01T08:22:34.904Z,844
2017-12-01T08:23:00.399Z,852
2017-12-01T08:23:25.880Z,928
2017-12-01T08:23:51.381Z,984
2017-12-01T08:24:16.874Z,992
2017-12-01T08:24:42.352Z,1016
2017-12-01T08:25:07.847Z,1052
2017-12-01T08:25:33.353Z,1004
2017-12-01T08:26:36.972Z,856
2017-12-01T08:27:02.485Z,864
2017-12-01T08:27:27.998Z,904
2017-12-01T08:27:53.511Z,912
2017-12-01T08:28:19.027Z,936
2017-12-01T08:28:44.528Z,944
2017-12-01T08:29:10.041Z,904
2017-12-01T08:29:35.574Z,852
2017-12-01T08:30:01.026Z,824
2017-12-01T08:30:26.516Z,820
2017-12-01T08:30:52.024Z,828
2017-12-01T08:31:17.515Z,828
2017-12-01T08:31:43.064Z,852
2017-12-01T08:32:56.913Z,852
2017-12-01T08:33:22.341Z,848
2017-12-01T08:33:47.834Z,916
2017-12-01T08:34:13.327Z,1012
2017-12-01T08:34:38.837Z,1080
2017-12-01T08:35:04.317Z,1128
2017-12-01T08:35:29.815Z,1184
2017-12-01T08:35:55.315Z,1196
2017-12-01T08:36:20.795Z,1252
2017-12-01T08:36:46.319Z,1320
2017-12-01T08:37:11.787Z,1348
2017-12-01T08:37:37.256Z,1332
2017-12-01T08:38:02.756Z,1384
2017-12-01T08:38:28.239Z,1524
2017-12-01T08:38:53.732Z,1592
2017-12-01T08:39:19.213Z,1616
2017-12-01T08:39:44.733Z,1640
2017-12-01T08:40:10.226Z,1656
2017-12-01T08:40:35.669Z,1644
2017-12-01T08:41:01.208Z,1660
2017-12-01T08:41:26.689Z,1672
2017-12-01T08:41:52.173Z,1676
2017-12-01T08:43:11.090Z,1780
2017-12-01T08:43:36.589Z,1820
2017-12-01T08:44:02.039Z,1864
2017-12-01T08:44:27.534Z,1896
2017-12-01T08:45:36.248Z,1928
2017-12-01T08:46:01.785Z,1940
2017-12-01T08:46:27.241Z,1968
2017-12-01T08:46:52.722Z,1988
2017-12-01T08:47:18.185Z,2028
2017-12-01T08:47:43.679Z,2068
2017-12-01T08:48:09.122Z,2116
2017-12-01T08:48:34.618Z,2168
2017-12-01T08:49:00.078Z,2212
2017-12-01T08:49:25.574Z,2224
2017-12-01T08:49:51.112Z,2216
2017-12-01T08:50:16.582Z,2200
2017-12-01T08:50:42.056Z,2204
2017-12-01T08:51:07.534Z,2160
2017-12-01T08:51:33.059Z,2168
2017-12-01T08:51:58.539Z,2216
2017-12-01T08:52:23.999Z,2240
2017-12-01T08:52:49.521Z,2212
2017-12-01T08:53:15.007Z,2240
2017-12-01T08:53:40.483Z,2300
2017-12-01T08:54:05.981Z,2360
2017-12-01T08:55:14.692Z,2316
2017-12-01T08:55:40.133Z,2316
2017-12-01T08:56:05.613Z,2296
2017-12-01T08:56:31.165Z,2296
2017-12-01T08:56:56.666Z,2188
2017-12-01T08:57:22.106Z,2096
2017-12-01T08:57:47.619Z,2016
2017-12-01T08:58:13.078Z,2012
2017-12-01T08:58:38.588Z,2036
2017-12-01T08:59:47.299Z,2036
2017-12-01T09:00:12.775Z,2092
2017-12-01T09:00:38.261Z,2196
2017-12-01T09:01:03.745Z,2300
2017-12-01T09:01:29.215Z,2404
2017-12-01T09:01:54.747Z,2472
2017-12-01T09:02:20.156Z,2432
2017-12-01T09:03:39.067Z,2164
2017-12-01T09:04:04.568Z,2100
2017-12-01T09:04:30.057Z,2032
2017-12-01T09:04:55.542Z,1976
2017-12-01T09:05:21.055Z,1964
2017-12-01T09:05:46.548Z,1944
2017-12-01T09:06:12.026Z,1964
2017-12-01T09:06:37.516Z,2048
2017-12-01T09:07:03.042Z,2108
2017-12-01T09:07:28.517Z,2224
2017-12-01T09:08:32.130Z,2324
2017-12-01T09:08:57.613Z,2368
2017-12-01T09:09:23.075Z,2352
2017-12-01T09:10:26.677Z,2268
2017-12-01T09:10:52.155Z,2280
2017-12-01T09:11:17.687Z,2276
2017-12-01T09:11:43.177Z,2264
2017-12-01T09:12:08.670Z,2280
2017-12-01T09:12:34.135Z,2308
2017-12-01T09:12:59.644Z,2336
2017-12-01T09:13:25.129Z,2352
2017-12-01T09:13:50.624Z,2348
2017-12-01T09:14:16.133Z,2360
2017-12-01T09:14:41.602Z,2376
2017-12-01T09:15:07.107Z,2376
2017-12-01T09:15:32.590Z,2376
2017-12-01T09:15:58.083Z,2372
2017-12-01T09:16:23.576Z,2376
2017-12-01T09:16:49.040Z,2404
2017-12-01T09:17:14.588Z,2448
2017-12-01T09:17:40.071Z,2512
2017-12-01T09:18:05.537Z,2592
2017-12-01T09:18:31.022Z,2692
2017-12-01T09:18:56.503Z,2820
2017-12-01T09:19:21.989Z,2980
2017-12-01T09:19:47.473Z,3124
2017-12-01T09:20:12.988Z,3208
2017-12-01T09:21:21.637Z,3100
2017-12-01T09:21:47.118Z,3060
2017-12-01T09:22:12.611Z,3068
2017-12-01T09:22:38.112Z,3156
2017-12-01T09:23:03.538Z,3176
2017-12-01T09:23:29.030Z,3184
2017-12-01T09:23:54.499Z,3160
2017-12-01T09:24:20.001Z,3108
2017-12-01T09:24:45.491Z,3096
2017-12-01T09:25:11.000Z,3060
2017-12-01T09:26:24.969Z,2672
2017-12-01T09:26:50.299Z,2568
2017-12-01T09:27:15.804Z,2480
2017-12-01T09:27:41.270Z,2412
2017-12-01T09:28:06.789Z,2400
2017-12-01T09:28:32.272Z,2412
2017-12-01T09:28:57.782Z,2452
2017-12-01T09:29:23.304Z,2536
2017-12-01T09:29:48.814Z,2624
2017-12-01T09:30:14.314Z,2732
2017-12-01T09:30:39.760Z,2788
2017-12-01T09:31:05.255Z,2776
2017-12-01T09:31:30.787Z,2752
2017-12-01T09:31:56.278Z,2652
2017-12-01T09:32:21.818Z,2572
2017-12-01T09:33:35.957Z,2300
2017-12-01T09:34:01.479Z,2312
2017-12-01T09:34:26.987Z,2344
2017-12-01T09:34:52.453Z,2428
2017-12-01T09:35:17.923Z,2552
2017-12-01T09:35:43.479Z,2740
2017-12-01T09:36:08.965Z,2868
2017-12-01T09:36:34.508Z,2892
2017-12-01T09:36:59.996Z,2828
2017-12-01T09:37:25.495Z,2828
2017-12-01T09:37:51.009Z,2828
2017-12-01T09:38:16.512Z,2804
2017-12-01T09:38:42.007Z,2772
2017-12-01T09:39:07.544Z,2764
2017-12-01T09:39:33.012Z,2796
2017-12-01T09:39:58.528Z,2844
2017-12-01T09:40:24.045Z,2912
2017-12-01T09:41:32.745Z,3116
2017-12-01T09:41:58.207Z,3176
2017-12-01T09:42:23.708Z,3232
2017-12-01T09:42:49.186Z,3328
2017-12-01T09:43:14.678Z,3404
2017-12-01T09:43:40.170Z,3464
2017-12-01T09:44:05.665Z,3484
2017-12-01T09:44:31.133Z,3496
2017-12-01T09:44:56.651Z,3488
2017-12-01T09:45:22.147Z,3516
2017-12-01T09:45:47.678Z,3588
2017-12-01T09:46:13.149Z,3696
2017-12-01T09:46:38.640Z,3820
2017-12-01T09:47:04.082Z,3928
2017-12-01T09:47:29.618Z,3988
2017-12-01T09:48:48.564Z,3920
2017-12-01T09:49:14.012Z,3852
2017-12-01T09:49:39.518Z,3824
2017-12-01T09:50:05.024Z,3816
2017-12-01T09:50:30.577Z,3804
2017-12-01T09:50:56.053Z,3792
2017-12-01T09:51:21.523Z,3760
2017-12-01T09:51:47.006Z,3732
2017-12-01T09:52:12.465Z,3672
2017-12-01T09:52:37.992Z,3564
2017-12-01T09:53:03.500Z,3496
2017-12-01T09:53:28.973Z,3428
2017-12-01T09:53:54.499Z,3356
2017-12-01T09:54:20.058Z,3304
2017-12-01T09:54:45.543Z,3256
2017-12-01T09:55:11.104Z,3260
2017-12-01T09:55:36.597Z,3316
2017-12-01T09:57:00.608Z,3752
2017-12-01T09:57:26.088Z,3936
2017-12-01T09:57:51.597Z,3936
2017-12-01T09:58:17.071Z,3896
2017-12-01T09:58:42.548Z,3892
2017-12-01T09:59:08.054Z,3940
2017-12-01T09:59:33.558Z,3964
2017-12-01T09:59:59.057Z,4024
2017-12-01T10:00:24.555Z,4032
2017-12-01T10:00:50.086Z,4008
2017-12-01T10:01:15.581Z,3968
2017-12-01T10:01:41.092Z,3828
2017-12-01T10:02:44.709Z,3540
2017-12-01T10:03:10.200Z,3436
2017-12-01T10:04:34.245Z,3268
2017-12-01T10:04:59.725Z,3300
2017-12-01T10:05:25.194Z,3332
2017-12-01T10:06:44.160Z,3416
2017-12-01T10:07:09.636Z,3448
2017-12-01T10:07:35.127Z,3496
2017-12-01T10:08:00.617Z,3528
2017-12-01T10:08:26.121Z,3564
2017-12-01T10:09:45.044Z,3596
2017-12-01T10:10:10.538Z,3596
2017-12-01T10:10:36.029Z,3584
2017-12-01T10:11:01.523Z,3568
2017-12-01T10:11:27.067Z,3608
2017-12-01T10:11:52.512Z,3712
2017-12-01T10:12:17.993Z,3840
2017-12-01T10:12:43.496Z,3964
2017-12-01T10:13:08.985Z,4072
2017-12-01T10:14:33.994Z,4548
2017-12-01T10:14:59.484Z,4632
2017-12-01T10:16:18.414Z,4484
2017-12-01T10:16:43.908Z,4448
2017-12-01T10:17:09.431Z,4512
2017-12-01T10:17:34.955Z,4532
2017-12-01T10:18:00.456Z,4572
2017-12-01T10:18:25.901Z,4576
2017-12-01T10:18:51.413Z,4560
2017-12-01T10:19:16.889Z,4504
2017-12-01T10:19:42.352Z,4408
2017-12-01T10:20:07.888Z,4200
2017-12-01T10:20:33.362Z,4056
2017-12-01T10:20:58.853Z,4012
2017-12-01T10:21:24.327Z,4044
2017-12-01T10:21:49.864Z,4100
2017-12-01T10:22:15.349Z,4208
2017-12-01T10:22:40.829Z,4324
2017-12-01T10:23:06.401Z,4384
2017-12-01T10:23:31.828Z,4412
2017-12-01T10:23:57.334Z,4448
2017-12-01T10:24:22.835Z,4452
2017-12-01T10:25:41.767Z,4404
2017-12-01T10:26:07.250Z,4376
2017-12-01T10:26:32.720Z,4392
2017-12-01T10:26:58.186Z,4404
2017-12-01T10:27:23.700Z,4408
2017-12-01T10:27:49.200Z,4368
2017-12-01T10:28:14.687Z,4328
2017-12-01T10:28:40.182Z,4308
2017-12-01T10:29:05.668Z,4312
2017-12-01T10:29:31.182Z,4356
2017-12-01T10:29:56.730Z,4412
2017-12-01T10:30:22.231Z,4440
2017-12-01T10:30:47.733Z,4480
2017-12-01T10:31:13.200Z,4576
2017-12-01T10:31:38.726Z,4692
2017-12-01T10:32:04.349Z,4804
2017-12-01T10:32:29.766Z,4888
2017-12-01T10:32:55.257Z,4964
2017-12-01T10:33:20.765Z,5016
2017-12-01T10:34:29.376Z,5016
2017-12-01T10:34:54.868Z,4948
2017-12-01T10:35:20.366Z,4884
2017-12-01T10:35:45.870Z,4784
2017-12-01T10:37:04.760Z,4528
2017-12-01T10:37:30.229Z,4452
2017-12-01T10:37:55.702Z,4380
2017-12-01T10:38:21.219Z,4272
2017-12-01T10:38:46.709Z,4172
2017-12-01T10:39:12.208Z,4104
2017-12-01T10:39:37.670Z,4068
2017-12-01T10:40:03.204Z,4068
2017-12-01T10:40:28.663Z,4060
2017-12-01T10:40:54.150Z,4024
2017-12-01T10:41:19.621Z,3928
2017-12-01T10:41:45.109Z,3876
2017-12-01T10:42:10.579Z,3824
2017-12-01T10:42:36.081Z,3772
2017-12-01T10:43:01.570Z,3752
2017-12-01T10:43:27.091Z,3768
2017-12-01T10:43:52.615Z,3844
2017-12-01T10:44:18.148Z,4008
2017-12-01T10:44:43.726Z,4232
2017-12-01T10:45:09.167Z,4460
2017-12-01T10:45:34.628Z,4624
2017-12-01T10:46:00.164Z,4764
2017-12-01T10:46:25.636Z,4892
2017-12-01T10:46:51.109Z,5056
2017-12-01T10:47:16.611Z,5116
2017-12-01T10:47:42.080Z,5188
2017-12-01T10:48:07.612Z,5224
2017-12-01T10:48:33.077Z,5212
2017-12-01T10:48:58.550Z,5196
2017-12-01T10:49:24.039Z,5172
2017-12-01T10:49:49.508Z,5152
2017-12-01T10:50:15.013Z,5132
2017-12-01T10:50:40.506Z,5152
2017-12-01T10:51:05.976Z,5188
2017-12-01T10:51:31.433Z,5252
2017-12-01T10:51:56.938Z,5296
2017-12-01T10:52:22.444Z,5256
2017-12-01T10:53:26.042Z,5508
2017-12-01T10:54:50.082Z,5704
2017-12-01T10:55:15.571Z,5780
2017-12-01T10:55:41.069Z,5872
2017-12-01T10:56:06.599Z,5928
2017-12-01T10:56:32.109Z,6008
2017-12-01T10:56:57.612Z,6108
2017-12-01T10:57:23.041Z,6264
2017-12-01T10:57:48.506Z,6392
2017-12-01T10:58:14.003Z,6480
2017-12-01T10:58:39.503Z,6532
2017-12-01T10:59:05.002Z,6472
2017-12-01T10:59:30.497Z,6476
2017-12-01T10:59:56.006Z,6420
2017-12-01T11:00:21.512Z,6324
2017-12-01T11:00:46.980Z,6188
2017-12-01T11:01:12.484Z,6104
2017-12-01T11:01:37.973Z,5960
2017-12-01T11:02:03.456Z,5732
2017-12-01T11:02:28.935Z,5516
2017-12-01T11:02:54.410Z,5376
2017-12-01T11:03:19.878Z,5132
2017-12-01T11:03:45.385Z,4976
2017-12-01T11:04:10.857Z,4892
2017-12-01T11:04:36.352Z,4828
2017-12-01T11:05:01.879Z,4848
2017-12-01T11:05:27.305Z,4868
2017-12-01T11:05:52.782Z,5020
2017-12-01T11:06:18.257Z,5204
2017-12-01T11:06:43.722Z,5464
2017-12-01T11:07:09.175Z,5704
2017-12-01T11:07:34.655Z,5896
2017-12-01T11:08:00.126Z,6028
2017-12-01T11:08:25.643Z,6072
2017-12-01T11:08:51.124Z,6076
2017-12-01T11:09:16.639Z,6028
2017-12-01T11:09:42.132Z,5920
2017-12-01T11:10:07.616Z,5868
2017-12-01T11:10:33.116Z,5832
2017-12-01T11:10:58.613Z,5816
2017-12-01T11:11:24.073Z,5868
2017-12-01T11:11:49.543Z,5996
2017-12-01T11:12:15.029Z,6088
2017-12-01T11:12:40.518Z,6108
2017-12-01T11:13:06.007Z,6248
2017-12-01T11:13:31.504Z,6280
2017-12-01T11:13:56.973Z,6312
2017-12-01T11:14:22.462Z,6352
2017-12-01T11:14:47.973Z,6304
2017-12-01T11:15:13.485Z,6244
2017-12-01T11:15:38.973Z,6140
2017-12-01T11:16:04.435Z,6112
2017-12-01T11:16:29.913Z,6236
2017-12-01T11:16:55.421Z,6480
2017-12-01T11:17:20.916Z,6648
2017-12-01T11:17:46.452Z,6624
2017-12-01T11:19:05.401Z,6972
2017-12-01T11:19:30.884Z,6924
2017-12-01T11:19:56.391Z,6712
2017-12-01T11:20:21.892Z,6500
2017-12-01T11:20:47.404Z,6168
2017-12-01T11:21:12.953Z,5796
2017-12-01T11:21:38.454Z,5608
2017-12-01T11:22:03.946Z,5504
2017-12-01T11:22:29.450Z,5484
2017-12-01T11:22:54.943Z,5468
2017-12-01T11:23:20.437Z,5420
2017-12-01T11:23:45.898Z,5408
2017-12-01T11:24:11.393Z,5388
2017-12-01T11:24:36.893Z,5308
2017-12-01T11:25:02.396Z,5236
2017-12-01T11:25:27.900Z,5184
2017-12-01T11:25:53.391Z,5100
2017-12-01T11:26:18.870Z,4988
2017-12-01T11:26:44.386Z,4904
2017-12-01T11:27:09.836Z,4864
2017-12-01T11:27:35.342Z,4812
2017-12-01T11:28:00.885Z,4728
2017-12-01T11:28:26.377Z,4656
2017-12-01T11:28:51.876Z,4572
2017-12-01T11:29:17.327Z,4500
2017-12-01T11:29:42.801Z,4456
2017-12-01T11:30:08.288Z,4408
2017-12-01T11:30:33.769Z,4400
2017-12-01T11:30:59.280Z,4372
2017-12-01T11:31:24.776Z,4340
2017-12-01T11:31:50.274Z,4332
2017-12-01T11:32:15.785Z,4384
2017-12-01T11:32:41.323Z,4448
2017-12-01T11:33:06.792Z,4496
2017-12-01T11:33:32.314Z,4620
2017-12-01T11:33:57.809Z,4740
2017-12-01T11:34:23.339Z,4824
2017-12-01T11:34:48.880Z,4888
2017-12-01T11:35:14.391Z,4908
2017-12-01T11:35:39.875Z,4900
2017-12-01T11:36:05.337Z,4820
2017-12-01T11:37:19.130Z,4560
2017-12-01T11:37:44.602Z,4528